Time;durP1;ratioP1;P1;durP2;ratioP2;P2;SDS_P1;SDS_P2;PMS_P1;PMS_P2;Temp;Humidity;BMP_temperature;BMP_pressure;BME280_temperature;BME280_humidity;BME280_pressure;Samples;Min_cycle;Max_cycle;Signal;HPM_P1;HPM_P2
2022/04/04 00:00:20;;;;;;;2.30;1.83;;;16.10;74.60;;;;;;4247073;27;20270;-71
2022/04/04 00:02:23;;;;;;;3.08;1.80;;;16.10;74.50;;;;;;4247707;27;20332;-71
2022/04/04 00:04:25;;;;;;;2.60;1.80;;;16.00;74.40;;;;;;4246228;27;20217;-71
2022/04/04 00:06:30;;;;;;;2.20;2.00;;;16.00;74.50;;;;;;4246052;27;20213;-72
2022/04/04 00:08:34;;;;;;;2.28;1.75;;;16.10;74.60;;;;;;4247312;27;20237;-72
2022/04/04 00:10:36;;;;;;;2.25;2.05;;;16.00;75.10;;;;;;4243693;27;20285;-71
2022/04/04 00:12:39;;;;;;;2.65;1.60;;;16.00;74.40;;;;;;4246279;27;20649;-72
2022/04/04 00:14:41;;;;;;;3.15;2.08;;;16.00;75.30;;;;;;4245250;27;20217;-71
2022/04/04 00:16:43;;;;;;;4.60;2.17;;;16.00;74.50;;;;;;4247313;27;20258;-72
2022/04/04 00:18:46;;;;;;;3.33;2.10;;;16.00;74.40;;;;;;4246901;27;20254;-71
2022/04/04 00:20:49;;;;;;;3.50;1.90;;;16.00;74.70;;;;;;4246797;27;20258;-71
2022/04/04 00:22:51;;;;;;;2.72;1.90;;;16.00;74.50;;;;;;4246799;27;20221;-71
2022/04/04 00:24:55;;;;;;;2.50;1.95;;;16.00;74.40;;;;;;4246957;27;20213;-71
2022/04/04 00:26:57;;;;;;;2.45;1.80;;;16.00;74.50;;;;;;4244386;27;20221;-72
2022/04/04 00:29:00;;;;;;;4.05;2.10;;;16.00;74.50;;;;;;4246163;27;20217;-71
2022/04/04 00:31:02;;;;;;;2.05;1.85;;;16.00;74.70;;;;;;4246678;27;20221;-72
2022/04/04 00:33:05;;;;;;;1.92;1.70;;;16.00;74.70;;;;;;4246598;27;20237;-72
2022/04/04 00:35:08;;;;;;;3.10;2.00;;;16.00;74.70;;;;;;4246585;27;20216;-71
2022/04/04 00:37:10;;;;;;;3.88;2.53;;;16.00;74.70;;;;;;4246563;27;20678;-72
2022/04/04 00:39:15;;;;;;;2.47;2.03;;;16.00;74.60;;;;;;4246413;27;20257;-72
2022/04/04 00:41:19;;;;;;;3.88;2.15;;;16.00;74.60;;;;;;4247024;27;20213;-73
2022/04/04 00:43:22;;;;;;;3.07;2.10;;;16.00;74.50;;;;;;4244385;27;20213;-73
2022/04/04 00:45:24;;;;;;;3.22;2.08;;;15.90;74.60;;;;;;4244394;27;20221;-73
2022/04/04 00:47:27;;;;;;;2.78;1.92;;;15.90;74.60;;;;;;4246058;27;20209;-73
2022/04/04 00:49:29;;;;;;;3.10;1.80;;;15.90;74.60;;;;;;4246758;27;20278;-73
2022/04/04 00:51:31;;;;;;;3.90;2.13;;;15.90;74.60;;;;;;4246526;27;20266;-73
2022/04/04 00:53:35;;;;;;;2.50;2.28;;;15.90;74.60;;;;;;4245208;27;20209;-73
2022/04/04 00:55:37;;;;;;;2.33;2.00;;;15.90;74.50;;;;;;4246935;27;20270;-73
2022/04/04 00:57:42;;;;;;;4.15;2.58;;;15.90;74.60;;;;;;4246565;27;20213;-72
2022/04/04 00:59:45;;;;;;;2.40;2.05;;;15.90;75.30;;;;;;4246548;27;20209;-73
2022/04/04 01:01:47;;;;;;;3.50;2.40;;;15.90;74.60;;;;;;4243552;27;20262;-72
2022/04/04 01:03:50;;;;;;;3.37;2.23;;;15.90;74.60;;;;;;4245522;27;20274;-73
2022/04/04 01:05:54;;;;;;;2.80;2.27;;;15.90;74.50;;;;;;4245831;27;20725;-73
2022/04/04 01:07:56;;;;;;;2.50;2.20;;;15.80;74.50;;;;;;4246527;27;20266;-73
2022/04/04 01:09:59;;;;;;;2.88;2.20;;;15.90;74.60;;;;;;4246290;27;20237;-73
2022/04/04 01:12:02;;;;;;;3.38;2.40;;;15.80;74.50;;;;;;4246671;27;20218;-72
2022/04/04 01:14:06;;;;;;;3.23;2.23;;;15.80;74.50;;;;;;4246281;27;20217;-72
2022/04/04 01:16:08;;;;;;;4.97;2.08;;;15.90;74.70;;;;;;4246060;27;20221;-72
2022/04/04 01:18:11;;;;;;;2.53;2.13;;;15.90;74.60;;;;;;4242919;27;20217;-72
2022/04/04 01:20:14;;;;;;;3.80;2.35;;;15.90;74.90;;;;;;4246072;27;20281;-72
2022/04/04 01:22:16;;;;;;;3.38;2.30;;;15.90;74.60;;;;;;4245512;27;20204;-72
2022/04/04 01:24:21;;;;;;;3.37;2.03;;;15.90;74.60;;;;;;4246305;27;20217;-72
2022/04/04 01:26:23;;;;;;;3.00;2.08;;;15.90;74.70;;;;;;4245760;27;20216;-72
2022/04/04 01:28:26;;;;;;;2.67;1.83;;;15.90;74.60;;;;;;4245865;27;20209;-72
2022/04/04 01:30:29;;;;;;;4.35;2.28;;;15.80;74.50;;;;;;4246128;27;20228;-72
2022/04/04 01:32:33;;;;;;;3.17;2.30;;;15.80;74.60;;;;;;4245483;27;20232;-72
2022/04/04 01:34:35;;;;;;;4.90;2.40;;;15.90;74.70;;;;;;4246320;27;20213;-72
2022/04/04 01:36:38;;;;;;;2.77;2.30;;;15.90;74.60;;;;;;4242866;27;20213;-72
2022/04/04 01:38:40;;;;;;;2.57;2.10;;;15.80;74.60;;;;;;4245164;27;20611;-72
2022/04/04 01:40:43;;;;;;;2.67;2.10;;;15.80;75.40;;;;;;4246435;27;20258;-72
2022/04/04 01:42:48;;;;;;;3.92;2.65;;;15.80;74.60;;;;;;4245375;27;20212;-72
2022/04/04 01:44:51;;;;;;;3.50;2.43;;;15.80;74.60;;;;;;4245614;27;20217;-72
2022/04/04 01:46:53;;;;;;;4.87;2.07;;;15.80;74.70;;;;;;4246180;27;20773;-72
2022/04/04 01:48:57;;;;;;;3.03;2.23;;;15.80;74.60;;;;;;4245652;27;20221;-72
2022/04/04 01:50:59;;;;;;;3.72;2.50;;;15.80;74.50;;;;;;4245735;27;20217;-72
2022/04/04 01:55:18;;;;;;;2.93;2.20;;;15.80;74.60;;;;;;4244509;27;20209;-71
2022/04/04 01:57:21;;;;;;;3.07;2.30;;;15.80;74.60;;;;;;4244942;27;20210;-71
2022/04/04 01:59:24;;;;;;;2.75;2.10;;;15.80;74.70;;;;;;4245178;27;20733;-71
2022/04/04 02:01:27;;;;;;;2.95;2.15;;;15.80;74.80;;;;;;4245412;27;20628;-71
2022/04/04 02:03:31;;;;;;;2.50;2.13;;;15.80;74.60;;;;;;4245499;27;20266;-71
2022/04/04 02:05:34;;;;;;;3.03;2.20;;;15.80;74.60;;;;;;4245574;27;20265;-71
2022/04/04 02:07:37;;;;;;;2.93;2.20;;;15.80;74.50;;;;;;4245067;27;20213;-71
2022/04/04 02:09:39;;;;;;;3.53;2.47;;;15.80;74.70;;;;;;4243919;27;20317;-71
2022/04/04 02:11:42;;;;;;;3.00;2.30;;;15.80;74.70;;;;;;4245268;27;20265;-71
2022/04/04 02:13:46;;;;;;;2.67;2.30;;;15.80;74.70;;;;;;4244267;27;20208;-71
2022/04/04 02:15:48;;;;;;;3.65;2.40;;;15.80;74.70;;;;;;4243418;27;20213;-71
2022/04/04 02:17:51;;;;;;;2.90;2.23;;;15.80;74.70;;;;;;4245503;27;20254;-71
2022/04/04 02:19:54;;;;;;;2.37;1.97;;;15.80;74.70;;;;;;4245342;27;20226;-72
2022/04/04 02:21:56;;;;;;;2.80;2.30;;;15.70;74.50;;;;;;4245408;28;20213;-72
2022/04/04 02:23:58;;;;;;;2.77;2.40;;;15.70;74.60;;;;;;4245718;28;20217;-72
2022/04/04 02:26:01;;;;;;;3.43;2.30;;;15.70;74.50;;;;;;4243852;28;20218;-72
2022/04/04 02:28:03;;;;;;;3.97;2.00;;;15.80;74.50;;;;;;4245504;28;20618;-72
2022/04/04 02:30:08;;;;;;;3.07;2.37;;;15.70;74.50;;;;;;4245556;28;20783;-72
2022/04/04 02:32:11;;;;;;;3.37;2.07;;;15.70;74.50;;;;;;4241961;27;20220;-72
2022/04/04 02:34:13;;;;;;;3.73;2.23;;;15.70;74.60;;;;;;4244934;28;20225;-72
2022/04/04 02:36:15;;;;;;;3.30;2.17;;;15.70;74.60;;;;;;4245371;28;20271;-72
2022/04/04 02:38:18;;;;;;;2.87;2.50;;;15.80;74.60;;;;;;4244525;27;20217;-72
2022/04/04 02:40:21;;;;;;;3.00;2.20;;;15.70;75.30;;;;;;4248947;27;20205;-72
2022/04/04 02:42:24;;;;;;;3.53;2.30;;;15.70;74.60;;;;;;4248723;27;20294;-72
2022/04/04 02:44:26;;;;;;;2.73;2.50;;;15.70;74.50;;;;;;4247444;27;20242;-73
2022/04/04 02:46:30;;;;;;;4.03;2.50;;;15.70;74.50;;;;;;4248878;27;20217;-72
2022/04/04 02:48:32;;;;;;;3.30;2.43;;;15.70;74.60;;;;;;4248958;27;20722;-72
2022/04/04 02:50:35;;;;;;;2.63;2.20;;;15.70;74.60;;;;;;4248862;27;20244;-72
2022/04/04 02:52:37;;;;;;;3.33;2.60;;;15.70;74.60;;;;;;4247903;27;20221;-72
2022/04/04 02:54:40;;;;;;;3.77;2.40;;;15.70;74.60;;;;;;4248177;27;20213;-72
2022/04/04 02:56:41;;;;;;;3.75;2.30;;;15.70;74.90;;;;;;4248908;27;20277;-72
2022/04/04 02:58:44;;;;;;;3.13;2.40;;;15.70;74.90;;;;;;4248545;27;20270;-72
2022/04/04 03:00:46;;;;;;;2.80;2.30;;;15.70;74.50;;;;;;4247137;27;20217;-72
2022/04/04 03:02:50;;;;;;;3.50;2.33;;;15.70;74.60;;;;;;4248448;27;20641;-72
2022/04/04 03:04:53;;;;;;;2.50;2.00;;;15.70;74.80;;;;;;4248446;27;20209;-72
2022/04/04 03:06:55;;;;;;;4.93;2.43;;;15.70;74.60;;;;;;4248480;27;20558;-72
2022/04/04 03:08:57;;;;;;;2.53;2.10;;;15.70;75.00;;;;;;4247436;27;20221;-72
2022/04/04 03:11:00;;;;;;;2.83;2.37;;;15.70;74.60;;;;;;4248052;27;20225;-73
2022/04/04 03:13:04;;;;;;;3.43;2.20;;;15.70;75.00;;;;;;4248089;27;20213;-72
2022/04/04 03:15:09;;;;;;;3.00;2.27;;;15.70;74.70;;;;;;4248548;27;20238;-72
2022/04/04 03:17:11;;;;;;;3.97;2.60;;;15.70;74.70;;;;;;4246505;27;20225;-73
2022/04/04 03:19:15;;;;;;;3.50;2.40;;;15.70;74.70;;;;;;4248253;27;20217;-72
2022/04/04 03:21:17;;;;;;;3.67;2.60;;;15.70;75.00;;;;;;4248316;27;20262;-72
2022/04/04 03:23:20;;;;;;;3.77;3.00;;;15.70;74.80;;;;;;4248457;27;20992;-72
2022/04/04 03:25:23;;;;;;;2.90;2.20;;;15.70;74.80;;;;;;4248249;27;20217;-72
2022/04/04 03:27:25;;;;;;;3.40;2.40;;;15.70;75.60;;;;;;4246660;27;20209;-72
2022/04/04 03:29:27;;;;;;;3.03;2.50;;;15.70;74.60;;;;;;4246442;27;20268;-72
2022/04/04 03:31:29;;;;;;;2.63;2.23;;;15.70;74.70;;;;;;4246799;27;20237;-72
2022/04/04 03:33:32;;;;;;;3.40;2.27;;;15.70;74.70;;;;;;4247089;27;20761;-72
2022/04/04 03:35:36;;;;;;;4.50;2.43;;;15.70;74.80;;;;;;4245681;28;20221;-72
2022/04/04 03:37:38;;;;;;;3.17;2.33;;;15.70;74.90;;;;;;4247085;28;20220;-72
2022/04/04 03:39:41;;;;;;;2.83;2.40;;;15.70;74.80;;;;;;4246087;28;20665;-72
2022/04/04 03:41:45;;;;;;;3.80;2.57;;;15.60;74.70;;;;;;4243980;28;20209;-72
2022/04/04 03:43:47;;;;;;;3.60;2.50;;;15.70;75.50;;;;;;4246348;28;20217;-72
2022/04/04 03:45:49;;;;;;;2.97;2.30;;;15.70;75.10;;;;;;4246535;28;20277;-72
2022/04/04 03:47:52;;;;;;;3.10;2.20;;;15.70;75.20;;;;;;4246990;28;20792;-72
2022/04/04 03:49:54;;;;;;;3.47;2.50;;;15.70;75.10;;;;;;4246259;27;20617;-72
2022/04/04 03:51:58;;;;;;;3.47;2.20;;;15.60;74.80;;;;;;4240700;28;20225;-72
2022/04/04 03:54:00;;;;;;;3.33;2.43;;;15.70;75.20;;;;;;4229898;28;20243;-73
2022/04/04 03:56:03;;;;;;;2.50;2.20;;;15.60;74.80;;;;;;4229480;28;20633;-72
2022/04/04 03:58:08;;;;;;;3.10;2.10;;;15.60;74.80;;;;;;4229403;28;20217;-72
2022/04/04 04:00:12;;;;;;;3.07;2.20;;;15.60;74.80;;;;;;4222732;28;20279;-72
2022/04/04 04:02:14;;;;;;;2.97;2.20;;;15.60;75.00;;;;;;4229353;28;20221;-72
2022/04/04 04:04:17;;;;;;;5.40;2.67;;;15.60;75.00;;;;;;4225291;28;20215;-72
2022/04/04 04:06:20;;;;;;;3.57;2.37;;;15.60;75.00;;;;;;4229678;28;20240;-73
2022/04/04 04:08:24;;;;;;;2.90;2.30;;;15.60;75.10;;;;;;4221749;28;20283;-72
2022/04/04 04:10:27;;;;;;;3.00;2.23;;;15.60;75.00;;;;;;4221600;28;20246;-72
2022/04/04 04:12:29;;;;;;;3.30;2.10;;;15.60;75.00;;;;;;4229439;28;20255;-72
2022/04/04 04:14:31;;;;;;;2.50;2.30;;;15.60;75.00;;;;;;4229588;28;20222;-72
2022/04/04 04:16:34;;;;;;;3.10;2.40;;;15.60;75.00;;;;;;4223460;28;20214;-73
2022/04/04 04:18:36;;;;;;;4.80;2.70;;;15.60;75.00;;;;;;4219863;28;20222;-72
2022/04/04 04:20:38;;;;;;;5.23;2.53;;;15.60;75.20;;;;;;4229050;28;20251;-72
2022/04/04 04:22:40;;;;;;;3.67;2.47;;;15.60;75.10;;;;;;4228795;28;20205;-72
2022/04/04 04:24:44;;;;;;;2.67;2.23;;;15.60;75.10;;;;;;4228018;28;20214;-72
2022/04/04 04:26:46;;;;;;;3.73;2.30;;;15.60;75.10;;;;;;4223745;28;20217;-72
2022/04/04 04:28:49;;;;;;;3.33;2.13;;;15.60;75.00;;;;;;4229038;28;20214;-72
2022/04/04 04:30:51;;;;;;;3.73;2.13;;;15.60;75.10;;;;;;4226107;28;20245;-73
2022/04/04 04:32:54;;;;;;;3.87;2.50;;;15.60;75.10;;;;;;4184423;28;1268214;-72
2022/04/04 04:34:56;;;;;;;3.07;2.33;;;15.60;75.10;;;;;;4222280;28;20666;-72
2022/04/04 04:36:59;;;;;;;2.50;1.93;;;15.60;75.20;;;;;;4226149;28;20267;-72
2022/04/04 04:39:01;;;;;;;3.80;2.37;;;15.60;75.40;;;;;;4229647;28;20218;-72
2022/04/04 04:41:05;;;;;;;3.60;2.30;;;15.60;76.60;;;;;;4229643;28;20218;-72
2022/04/04 04:43:07;;;;;;;2.60;2.23;;;15.60;75.30;;;;;;4215359;28;20252;-72
2022/04/04 04:45:10;;;;;;;2.30;2.00;;;15.60;75.40;;;;;;4213239;28;20210;-72
2022/04/04 04:47:14;;;;;;;2.30;2.00;;;15.60;76.20;;;;;;4212791;28;20226;-72
2022/04/04 04:49:17;;;;;;;3.13;2.40;;;15.60;75.30;;;;;;4213066;28;20610;-72
2022/04/04 04:51:19;;;;;;;3.70;2.17;;;15.60;75.40;;;;;;4214923;28;20639;-72
2022/04/04 04:53:21;;;;;;;3.80;2.17;;;15.60;75.20;;;;;;4212902;28;20720;-73
2022/04/04 04:55:25;;;;;;;2.83;2.03;;;15.30;75.60;;;;;;4212842;28;20222;-72
2022/04/04 04:57:29;;;;;;;3.17;1.90;;;15.20;76.30;;;;;;4213183;28;20964;-72
2022/04/04 04:59:31;;;;;;;6.20;2.10;;;15.10;76.60;;;;;;4210785;28;20222;-72
2022/04/04 05:01:34;;;;;;;3.53;2.10;;;15.10;76.70;;;;;;4210256;28;20215;-72
2022/04/04 05:03:36;;;;;;;2.97;2.00;;;15.20;76.40;;;;;;4212808;28;20218;-72
2022/04/04 05:05:39;;;;;;;2.33;1.93;;;15.40;76.00;;;;;;4228197;28;20358;-72
2022/04/04 05:07:41;;;;;;;3.80;2.50;;;15.50;76.60;;;;;;4212287;28;20725;-72
2022/04/04 05:09:43;;;;;;;2.80;1.93;;;15.70;76.00;;;;;;4215396;28;20218;-72
2022/04/04 05:11:46;;;;;;;3.50;2.30;;;15.70;75.90;;;;;;4212606;28;20289;-72
2022/04/04 05:13:50;;;;;;;3.03;2.07;;;15.80;75.90;;;;;;4212117;28;20276;-72
2022/04/04 05:15:52;;;;;;;4.07;2.03;;;15.80;76.20;;;;;;4212482;28;20214;-72
2022/04/04 05:17:54;;;;;;;4.60;2.10;;;15.90;76.20;;;;;;4221875;28;20218;-72
2022/04/04 05:19:57;;;;;;;3.53;2.00;;;15.90;76.40;;;;;;4212371;28;20210;-72
2022/04/04 05:21:59;;;;;;;4.40;2.50;;;15.90;76.50;;;;;;4214005;28;20218;-72
2022/04/04 05:24:02;;;;;;;1.95;1.52;;;16.00;76.60;;;;;;4229227;28;20279;-72
2022/04/04 05:26:05;;;;;;;4.00;2.13;;;15.90;76.30;;;;;;4227046;28;20215;-72
2022/04/04 05:28:07;;;;;;;2.83;2.05;;;15.90;76.70;;;;;;4220416;28;20249;-72
2022/04/04 05:30:11;;;;;;;2.93;2.17;;;16.00;76.60;;;;;;4210927;28;20214;-72
2022/04/04 05:32:14;;;;;;;3.28;2.25;;;16.00;76.80;;;;;;4211809;28;20234;-72
2022/04/04 05:34:16;;;;;;;2.92;2.15;;;16.00;77.10;;;;;;4210933;28;20217;-72
2022/04/04 05:36:20;;;;;;;2.67;2.33;;;16.00;77.20;;;;;;4212017;28;20218;-72
2022/04/04 05:38:22;;;;;;;3.63;2.10;;;16.00;77.10;;;;;;4211736;28;20222;-72
2022/04/04 05:40:25;;;;;;;3.20;2.13;;;16.00;76.90;;;;;;4212004;28;20214;-72
2022/04/04 05:42:29;;;;;;;3.88;2.10;;;16.10;77.60;;;;;;4211159;28;20558;-72
2022/04/04 05:44:32;;;;;;;2.85;1.88;;;16.10;77.80;;;;;;4211939;28;20218;-72
2022/04/04 05:46:36;;;;;;;2.28;1.70;;;16.10;77.80;;;;;;4211742;28;20214;-72
2022/04/04 05:48:39;;;;;;;4.37;2.03;;;16.10;77.70;;;;;;4211703;28;20214;-72
2022/04/04 05:50:41;;;;;;;2.85;1.90;;;16.10;77.60;;;;;;4209257;28;20218;-72
2022/04/04 05:52:43;;;;;;;2.85;1.77;;;16.10;77.80;;;;;;4210606;28;20753;-72
2022/04/04 05:54:54;;;;;;;4.75;2.17;;;16.10;77.80;;;;;;4210470;28;20218;-72
2022/04/04 05:56:57;;;;;;;4.47;2.07;;;16.20;77.90;;;;;;4208970;28;20210;-72
2022/04/04 05:59:02;;;;;;;2.17;1.67;;;16.20;78.10;;;;;;4210262;28;20252;-72
2022/04/04 06:01:05;;;;;;;3.67;2.10;;;16.20;78.40;;;;;;4209602;28;20275;-72
2022/04/04 06:03:08;;;;;;;2.63;1.70;;;16.20;78.40;;;;;;4211134;28;20752;-72
2022/04/04 06:05:11;;;;;;;4.22;1.90;;;16.20;78.50;;;;;;4211582;28;20206;-72
2022/04/04 06:07:14;;;;;;;2.78;1.92;;;16.30;78.80;;;;;;4210349;28;20570;-72
2022/04/04 06:09:16;;;;;;;3.45;1.80;;;16.30;79.00;;;;;;4211695;28;20315;-72
2022/04/04 06:11:18;;;;;;;2.53;1.83;;;16.30;78.80;;;;;;4210656;28;20975;-72
2022/04/04 06:13:21;;;;;;;4.75;2.00;;;16.30;79.40;;;;;;4211157;28;20215;-72
2022/04/04 06:15:23;;;;;;;3.13;1.70;;;16.30;79.00;;;;;;4211116;28;20621;-72
2022/04/04 06:17:26;;;;;;;2.45;1.77;;;16.30;79.70;;;;;;4205359;28;20191;-72
2022/04/04 06:19:29;;;;;;;2.65;1.80;;;16.30;79.20;;;;;;4211479;28;20218;-72
2022/04/04 06:21:32;;;;;;;3.05;1.85;;;16.30;79.50;;;;;;4211424;28;20210;-72
2022/04/04 06:23:36;;;;;;;2.90;1.83;;;16.30;79.50;;;;;;4211288;28;20555;-72
2022/04/04 06:25:41;;;;;;;2.97;1.80;;;16.30;79.40;;;;;;4210741;28;20685;-72
2022/04/04 06:27:44;;;;;;;3.40;1.70;;;16.40;79.60;;;;;;4211268;28;20222;-72
2022/04/04 06:29:47;;;;;;;2.92;1.70;;;16.40;79.00;;;;;;4211386;28;20681;-73
2022/04/04 06:31:51;;;;;;;2.45;1.58;;;16.30;78.80;;;;;;4211343;28;20276;-72
2022/04/04 06:33:53;;;;;;;3.72;2.58;;;16.40;78.90;;;;;;4223423;28;20259;-72
2022/04/04 06:35:57;;;;;;;4.47;2.30;;;16.40;77.70;;;;;;4221401;28;20347;-73
2022/04/04 06:38:02;;;;;;;3.30;2.45;;;16.30;77.80;;;;;;4228992;28;20255;-73
2022/04/04 06:40:05;;;;;;;12.27;2.90;;;16.30;78.50;;;;;;4229271;28;20209;-73
2022/04/04 06:42:07;;;;;;;4.20;2.35;;;16.40;78.40;;;;;;4216749;28;20272;-73
2022/04/04 06:44:10;;;;;;;4.35;2.83;;;16.40;78.10;;;;;;4223185;28;20240;-74
2022/04/04 06:46:13;;;;;;;23.90;4.07;;;16.40;78.20;;;;;;4227354;28;20223;-74
2022/04/04 06:48:15;;;;;;;15.38;3.30;;;16.40;80.80;;;;;;4228624;28;20201;-74
2022/04/04 06:50:18;;;;;;;8.80;2.53;;;16.40;84.70;;;;;;4229195;28;20618;-74
2022/04/04 06:52:22;;;;;;;11.48;2.70;;;16.50;89.20;;;;;;4229078;28;20287;-74
2022/04/04 06:54:24;;;;;;;12.07;3.00;;;16.60;89.30;;;;;;4229175;28;20202;-74
2022/04/04 06:56:27;;;;;;;12.05;2.72;;;16.60;90.40;;;;;;4222383;28;20654;-71
2022/04/04 06:58:29;;;;;;;11.38;2.60;;;16.60;91.00;;;;;;4223929;28;20252;-71
2022/04/04 07:00:32;;;;;;;18.88;5.03;;;16.60;92.40;;;;;;4217970;28;20273;-71
2022/04/04 07:02:35;;;;;;;12.68;4.55;;;16.60;92.10;;;;;;4227654;28;20210;-71
2022/04/04 07:04:38;;;;;;;20.15;4.50;;;16.50;92.00;;;;;;4222386;28;20291;-71
2022/04/04 07:06:40;;;;;;;11.85;3.85;;;16.50;92.50;;;;;;4227873;28;20221;-71
2022/04/04 07:08:44;;;;;;;14.07;3.17;;;16.60;92.50;;;;;;4227944;28;20375;-72
2022/04/04 07:10:46;;;;;;;9.23;2.95;;;16.50;92.10;;;;;;4228559;28;20213;-74
2022/04/04 07:12:49;;;;;;;11.38;3.08;;;16.60;92.10;;;;;;4212250;28;20270;-74
2022/04/04 07:14:52;;;;;;;8.98;3.38;;;16.50;91.90;;;;;;4222222;28;20218;-75
2022/04/04 07:16:54;;;;;;;8.73;2.90;;;16.60;91.60;;;;;;4220032;28;20226;-74
2022/04/04 07:18:56;;;;;;;11.35;3.67;;;16.70;91.40;;;;;;4226897;28;20222;-74
2022/04/04 07:20:59;;;;;;;9.73;2.67;;;16.80;91.20;;;;;;4218237;28;20398;-74
2022/04/04 07:23:02;;;;;;;13.75;2.72;;;16.80;90.80;;;;;;4223109;28;20247;-74
2022/04/04 07:25:07;;;;;;;13.02;2.67;;;16.70;90.90;;;;;;4214055;28;20271;-75
2022/04/04 07:27:10;;;;;;;5.32;2.13;;;16.80;90.90;;;;;;4217058;28;20331;-75
2022/04/04 07:29:13;;;;;;;8.75;2.53;;;16.90;90.60;;;;;;4212777;28;20211;-74
2022/04/04 07:31:15;;;;;;;10.30;2.60;;;16.90;90.30;;;;;;4223177;28;20632;-74
2022/04/04 07:33:18;;;;;;;9.30;2.50;;;16.90;90.40;;;;;;4225572;28;20287;-74
2022/04/04 07:35:22;;;;;;;14.75;2.90;;;16.90;90.40;;;;;;4220810;28;20274;-75
2022/04/04 07:37:24;;;;;;;6.40;1.95;;;17.00;90.20;;;;;;4228795;28;20213;-75
2022/04/04 07:39:26;;;;;;;8.20;2.42;;;17.10;90.20;;;;;;4220756;28;20735;-76
2022/04/04 07:41:30;;;;;;;11.23;2.80;;;17.00;90.00;;;;;;4224868;27;20248;-75
2022/04/04 07:43:32;;;;;;;7.15;2.40;;;17.10;89.50;;;;;;4214711;28;20218;-74
2022/04/04 07:45:35;;;;;;;7.72;2.15;;;17.10;89.40;;;;;;4213084;28;20218;-75
2022/04/04 07:48:03;;;;;;;7.10;2.27;;;17.10;89.40;;;;;;4211279;28;20259;-72
2022/04/04 07:50:08;;;;;;;8.23;2.22;;;17.10;89.60;;;;;;4219141;28;20217;-72
2022/04/04 07:52:10;;;;;;;5.85;2.03;;;17.10;89.10;;;;;;4221473;28;20210;-71
2022/04/04 07:54:13;;;;;;;11.98;2.67;;;17.20;89.10;;;;;;4225953;28;20218;-71
2022/04/04 07:56:15;;;;;;;6.50;2.10;;;17.30;89.30;;;;;;4212216;28;20628;-72
2022/04/04 07:58:20;;;;;;;4.80;1.58;;;17.20;89.10;;;;;;4208016;28;20263;-73
2022/04/04 08:00:24;;;;;;;6.07;1.80;;;17.20;89.10;;;;;;4214963;27;20218;-73
2022/04/04 08:02:27;;;;;;;10.25;2.28;;;17.20;89.40;;;;;;4228762;27;21011;-76
2022/04/04 08:04:29;;;;;;;5.25;2.20;;;17.20;89.00;;;;;;4226462;28;20210;-76
2022/04/04 08:06:32;;;;;;;10.13;2.28;;;17.30;89.00;;;;;;4217080;27;20613;-76
2022/04/04 08:08:34;;;;;;;8.13;2.42;;;17.40;88.70;;;;;;4224101;27;20346;-76
2022/04/04 08:10:43;;;;;;;5.60;1.92;;;17.40;88.60;;;;;;4211094;28;20211;-77
2022/04/04 08:12:46;;;;;;;8.68;2.03;;;17.50;88.30;;;;;;4214706;28;20951;-76
2022/04/04 08:14:50;;;;;;;7.85;2.00;;;17.60;88.00;;;;;;4226076;27;20679;-75
2022/04/04 08:16:52;;;;;;;6.57;2.30;;;17.60;87.80;;;;;;4228216;27;20615;-74
2022/04/04 08:18:55;;;;;;;6.30;2.38;;;17.70;87.70;;;;;;4216698;28;20263;-76
2022/04/04 08:20:57;;;;;;;8.35;2.47;;;17.80;87.00;;;;;;4216364;28;20213;-75
2022/04/04 08:22:59;;;;;;;6.75;1.83;;;17.90;87.00;;;;;;4215788;28;20244;-75
2022/04/04 08:25:02;;;;;;;4.43;2.00;;;17.90;86.60;;;;;;4212441;28;20284;-76
2022/04/04 08:27:04;;;;;;;5.25;1.70;;;17.90;87.00;;;;;;4222118;28;20206;-76
2022/04/04 08:29:09;;;;;;;6.43;1.83;;;18.00;87.10;;;;;;4210897;27;20209;-72
2022/04/04 08:31:12;;;;;;;8.85;2.15;;;18.00;87.10;;;;;;4224165;28;20706;-74
2022/04/04 08:33:15;;;;;;;9.02;2.47;;;18.00;87.10;;;;;;4215096;27;20633;-74
2022/04/04 08:35:18;;;;;;;4.90;2.25;;;18.00;86.50;;;;;;4207657;28;20218;-75
2022/04/04 08:37:20;;;;;;;8.20;2.72;;;18.10;86.60;;;;;;4203931;28;20236;-74
2022/04/04 08:39:22;;;;;;;4.85;2.30;;;18.10;86.60;;;;;;4209059;28;21044;-75
2022/04/04 08:41:26;;;;;;;3.97;2.08;;;18.10;86.70;;;;;;4213017;28;20214;-75
2022/04/04 08:43:29;;;;;;;8.80;2.20;;;18.00;87.00;;;;;;4202639;28;20208;-76
2022/04/04 08:45:32;;;;;;;6.32;1.90;;;18.10;86.90;;;;;;4217226;28;20211;-75
2022/04/04 08:47:37;;;;;;;6.68;2.30;;;18.10;86.70;;;;;;4201397;28;20219;-75
2022/04/04 08:49:41;;;;;;;6.72;2.15;;;18.20;86.70;;;;;;4204653;28;20732;-75
2022/04/04 08:51:43;;;;;;;5.72;1.80;;;18.20;86.60;;;;;;4207206;28;20314;-75
2022/04/04 08:53:46;;;;;;;4.47;1.75;;;18.20;86.40;;;;;;4205732;28;20239;-76
2022/04/04 08:55:48;;;;;;;4.88;1.88;;;18.30;86.70;;;;;;4210033;28;20272;-76
2022/04/04 08:57:52;;;;;;;6.18;1.67;;;18.30;86.70;;;;;;4207764;28;20686;-77
2022/04/04 08:59:55;;;;;;;4.13;1.85;;;18.20;86.70;;;;;;4221002;28;20210;-77
2022/04/04 09:01:57;;;;;;;6.10;1.90;;;18.30;86.80;;;;;;4209162;28;20215;-75
2022/04/04 09:04:17;;;;;;;4.85;1.70;;;18.30;86.80;;;;;;4207947;28;20260;-77
2022/04/04 09:06:20;;;;;;;4.20;1.83;;;18.30;87.00;;;;;;4206328;28;20215;-76
2022/04/04 09:08:23;;;;;;;6.85;2.03;;;18.40;86.80;;;;;;4202039;28;20219;-76
2022/04/04 09:10:32;;;;;;;3.70;1.83;;;18.40;86.80;;;;;;4204163;28;20214;-76
2022/04/04 09:12:38;;;;;;;6.25;1.83;;;18.40;87.00;;;;;;4207931;28;20271;-76
2022/04/04 09:14:44;;;;;;;3.90;1.58;;;18.40;87.10;;;;;;4206783;28;20295;-72
2022/04/04 09:16:55;;;;;;;4.30;1.70;;;18.40;87.10;;;;;;4204306;28;20265;-73
2022/04/04 09:18:57;;;;;;;5.22;1.60;;;18.40;87.00;;;;;;4200712;28;20268;-72
2022/04/04 09:21:01;;;;;;;3.55;1.52;;;18.50;87.10;;;;;;4203914;28;20635;-73
2022/04/04 09:23:04;;;;;;;3.85;1.77;;;18.50;86.80;;;;;;4201729;28;20214;-72
2022/04/04 09:25:07;;;;;;;6.32;1.83;;;18.60;87.10;;;;;;4201563;28;20207;-73
2022/04/04 09:27:14;;;;;;;3.08;1.63;;;18.60;86.80;;;;;;4204738;28;20245;-73
2022/04/04 09:29:19;;;;;;;4.47;1.48;;;18.60;87.10;;;;;;4208058;28;20744;-73
2022/04/04 09:31:21;;;;;;;5.50;1.52;;;18.60;87.00;;;;;;4197892;28;20215;-73
2022/04/04 09:33:35;;;;;;;2.83;1.42;;;18.60;87.00;;;;;;4214150;28;20279;-72
2022/04/04 09:35:45;;;;;;;3.08;1.33;;;18.60;87.10;;;;;;4218633;27;20535;-72
2022/04/04 09:37:51;;;;;;;3.65;1.50;;;18.70;87.00;;;;;;4215114;28;20218;-73
2022/04/04 09:40:05;;;;;;;5.05;1.95;;;18.70;86.80;;;;;;4220309;28;20218;-73
2022/04/04 09:42:15;;;;;;;5.32;1.33;;;18.70;87.00;;;;;;4221743;28;20214;-72
2022/04/04 09:44:25;;;;;;;1.90;1.40;;;18.70;87.00;;;;;;4222600;28;20247;-72
2022/04/04 09:46:32;;;;;;;3.75;1.50;;;18.70;87.10;;;;;;4217825;28;20547;-72
2022/04/04 09:48:35;;;;;;;4.53;1.65;;;18.80;87.20;;;;;;4213996;28;20256;-72
2022/04/04 09:50:43;;;;;;;4.03;1.67;;;18.80;87.10;;;;;;4216012;27;20267;-72
2022/04/04 09:52:52;;;;;;;5.47;1.67;;;18.90;87.20;;;;;;4220201;27;20275;-74
2022/04/04 09:54:55;;;;;;;6.03;1.63;;;18.90;87.30;;;;;;4210383;28;20214;-74
2022/04/04 09:57:10;;;;;;;4.00;1.40;;;18.90;87.00;;;;;;4223157;28;20202;-74
2022/04/04 09:59:14;;;;;;;3.10;1.60;;;19.00;87.40;;;;;;4219956;28;20263;-74
2022/04/04 10:01:17;;;;;;;4.90;1.85;;;19.00;87.30;;;;;;4218191;28;20218;-74
2022/04/04 10:03:21;;;;;;;4.13;1.80;;;19.00;87.40;;;;;;4220264;28;20291;-74
2022/04/04 10:05:26;;;;;;;4.13;1.63;;;19.00;87.10;;;;;;4221917;28;20205;-73
2022/04/04 10:07:28;;;;;;;5.82;1.60;;;19.10;87.10;;;;;;4202349;28;20214;-73
2022/04/04 10:09:33;;;;;;;3.72;1.45;;;19.10;87.10;;;;;;4224980;28;20723;-73
2022/04/04 10:11:38;;;;;;;4.63;1.50;;;19.10;87.10;;;;;;4223168;28;20610;-73
2022/04/04 10:13:41;;;;;;;4.22;1.77;;;19.20;87.10;;;;;;4219861;28;20226;-74
2022/04/04 10:15:44;;;;;;;7.10;1.48;;;19.20;87.40;;;;;;4205602;28;20247;-74
2022/04/04 10:17:47;;;;;;;5.45;1.70;;;19.20;87.40;;;;;;4217032;28;20213;-74
2022/04/04 10:19:51;;;;;;;4.25;1.55;;;19.20;87.50;;;;;;4210867;28;21103;-74
2022/04/04 10:21:54;;;;;;;6.85;1.60;;;19.20;87.40;;;;;;4218271;28;20221;-76
2022/04/04 10:23:59;;;;;;;2.90;1.50;;;19.10;87.70;;;;;;4215449;28;20209;-73
2022/04/04 10:26:04;;;;;;;3.55;1.67;;;19.10;88.10;;;;;;4215911;28;20210;-74
2022/04/04 10:28:06;;;;;;;4.75;1.67;;;19.00;88.30;;;;;;4224053;28;20221;-76
2022/04/04 10:30:10;;;;;;;5.35;1.63;;;19.00;88.70;;;;;;4220455;28;20209;-77
2022/04/04 10:32:24;;;;;;;4.10;1.60;;;19.00;88.80;;;;;;4217180;28;20217;-76
2022/04/04 10:34:27;;;;;;;5.78;1.60;;;18.90;88.90;;;;;;4223011;28;20286;-76
2022/04/04 10:36:29;;;;;;;2.33;1.38;;;19.00;89.10;;;;;;4222691;28;20714;-75
2022/04/04 10:38:33;;;;;;;6.18;1.50;;;18.90;89.10;;;;;;4224436;28;20718;-76
2022/04/04 10:40:35;;;;;;;6.28;1.83;;;18.90;89.50;;;;;;4215115;28;20210;-76
2022/04/04 10:42:43;;;;;;;9.23;1.98;;;18.90;89.50;;;;;;4224598;28;20260;-75